createdAt,value
2023-05-05T00:01:55.145Z,5.90
2023-05-05T00:04:40.294Z,6.30
2023-05-05T00:07:25.452Z,6.03
2023-05-05T00:10:10.779Z,6.00
2023-05-05T00:12:56.344Z,5.77
2023-05-05T00:15:46.333Z,6.37
2023-05-05T00:18:31.756Z,6.37
2023-05-05T00:21:17.319Z,5.97
2023-05-05T00:24:03.078Z,6.50
2023-05-05T00:26:48.511Z,6.22
2023-05-05T00:29:33.887Z,6.27
2023-05-05T00:32:19.095Z,6.00
2023-05-05T00:35:04.633Z,5.70
2023-05-05T00:37:50.165Z,6.33
2023-05-05T00:40:36.403Z,6.00
2023-05-05T00:43:21.869Z,5.83
2023-05-05T00:46:22.237Z,5.60
2023-05-05T00:49:08.347Z,5.33
2023-05-05T00:51:53.832Z,5.43
2023-05-05T00:54:39.157Z,5.53
2023-05-05T00:57:25.428Z,5.50
2023-05-05T01:00:11.207Z,6.03
2023-05-05T01:02:56.779Z,6.03
2023-05-05T01:06:10.239Z,5.47
2023-05-05T01:09:15.539Z,5.20
2023-05-05T01:12:18.967Z,5.03
2023-05-05T01:15:14.803Z,5.97
2023-05-05T01:18:11.801Z,5.90
2023-05-05T01:21:19.609Z,5.57
2023-05-05T01:24:26.220Z,5.87
2023-05-05T01:27:39.272Z,5.97
2023-05-05T01:30:43.197Z,6.40
2023-05-05T01:33:35.218Z,6.20
2023-05-05T01:36:25.224Z,6.57
2023-05-05T01:39:15.668Z,6.13
2023-05-05T01:42:08.038Z,5.73
2023-05-05T01:44:54.279Z,6.20
2023-05-05T01:47:40.488Z,6.53
2023-05-05T01:50:28.775Z,6.43
2023-05-05T01:53:17.225Z,5.93
2023-05-05T01:56:03.680Z,5.93
2023-05-05T01:58:49.748Z,6.30
2023-05-05T02:01:38.679Z,6.70
2023-05-05T02:04:24.369Z,5.90
2023-05-05T02:07:12.593Z,5.53
2023-05-05T02:09:59.413Z,6.53
2023-05-05T02:12:46.102Z,6.43
2023-05-05T02:15:31.813Z,5.60
2023-05-05T02:18:18.591Z,6.23
2023-05-05T02:21:05.026Z,6.07
2023-05-05T02:23:51.133Z,5.93
2023-05-05T02:26:40.150Z,6.50
2023-05-05T02:29:39.430Z,5.93
2023-05-05T02:32:35.984Z,6.07
2023-05-05T02:35:26.704Z,5.83
2023-05-05T02:38:16.930Z,6.33
2023-05-05T02:41:05.214Z,6.20
2023-05-05T02:43:52.135Z,6.03
2023-05-05T02:46:38.042Z,5.97
2023-05-05T02:49:23.297Z,6.43
2023-05-05T02:52:09.133Z,6.20
2023-05-05T02:54:56.162Z,6.80
2023-05-05T02:57:48.326Z,6.60
2023-05-05T03:00:42.524Z,6.67
2023-05-05T03:03:37.575Z,6.23
2023-05-05T03:06:26.451Z,5.70
2023-05-05T03:09:30.357Z,6.83
2023-05-05T03:12:20.820Z,7.07
2023-05-05T03:15:49.264Z,6.60
2023-05-05T03:18:38.561Z,6.33
2023-05-05T03:21:24.225Z,6.40
2023-05-05T03:24:17.780Z,6.97
2023-05-05T03:27:09.013Z,7.73
2023-05-05T03:29:57.027Z,7.33
2023-05-05T03:32:43.308Z,6.97
2023-05-05T03:35:29.092Z,6.80
2023-05-05T03:38:14.485Z,6.47
2023-05-05T03:41:02.472Z,7.17
2023-05-05T03:43:47.937Z,7.40
2023-05-05T03:46:33.111Z,7.17
2023-05-05T03:49:18.562Z,7.67
2023-05-05T03:52:05.527Z,8.10
2023-05-05T03:54:51.422Z,8.10
2023-05-05T03:57:37.185Z,8.00
2023-05-05T04:00:22.293Z,7.00
2023-05-05T04:03:08.026Z,6.70
2023-05-05T04:05:53.280Z,6.90
2023-05-05T04:08:40.091Z,7.00
2023-05-05T04:11:25.790Z,6.70
2023-05-05T04:14:12.836Z,7.13
2023-05-05T04:16:58.075Z,7.07
2023-05-05T04:19:43.528Z,6.63
2023-05-05T04:22:29.097Z,7.40
2023-05-05T04:25:14.894Z,6.50
2023-05-05T04:28:00.430Z,6.87
2023-05-05T04:30:47.257Z,7.00
2023-05-05T04:33:32.507Z,7.63
2023-05-05T04:36:18.193Z,7.90
2023-05-05T04:39:04.325Z,8.00
2023-05-05T04:41:49.873Z,7.63
2023-05-05T04:44:35.143Z,6.73
2023-05-05T04:47:20.771Z,6.80
2023-05-05T04:50:07.553Z,6.87
2023-05-05T04:52:53.006Z,6.70
2023-05-05T04:55:41.531Z,6.73
2023-05-05T04:58:26.715Z,6.47
2023-05-05T05:01:14.098Z,6.10
2023-05-05T05:03:59.609Z,6.07
2023-05-05T05:06:45.014Z,5.63
2023-05-05T05:09:30.326Z,5.43
2023-05-05T05:12:16.184Z,5.68
2023-05-05T05:15:01.729Z,5.55
2023-05-05T05:17:47.509Z,5.80
2023-05-05T05:20:33.337Z,5.60
2023-05-05T05:23:19.437Z,5.53
2023-05-05T05:26:06.296Z,5.72
2023-05-05T05:28:52.369Z,6.00
2023-05-05T05:31:38.059Z,5.85
2023-05-05T05:34:23.731Z,5.10
2023-05-05T05:37:09.464Z,6.18
2023-05-05T05:39:55.278Z,5.80
2023-05-05T05:42:42.011Z,5.50
2023-05-05T05:45:29.179Z,5.85
2023-05-05T05:48:15.182Z,5.70
2023-05-05T05:51:00.771Z,6.00
2023-05-05T05:53:46.560Z,5.97
2023-05-05T05:56:32.278Z,5.75
2023-05-05T05:59:17.795Z,5.38
2023-05-05T06:02:02.989Z,5.43
2023-05-05T06:04:48.075Z,5.53
2023-05-05T06:07:33.820Z,5.70
2023-05-05T06:13:12.358Z,5.70
2023-05-05T06:16:01.682Z,5.30
2023-05-05T06:18:46.965Z,5.22
2023-05-05T06:21:32.671Z,4.88
2023-05-05T06:24:18.070Z,5.63
2023-05-05T06:27:03.577Z,5.18
2023-05-05T06:29:49.109Z,5.70
2023-05-05T06:32:34.278Z,5.97
2023-05-05T06:35:19.765Z,5.47
2023-05-05T06:38:05.184Z,5.50
2023-05-05T06:40:50.490Z,5.55
2023-05-05T06:43:35.691Z,5.72
2023-05-05T06:46:25.618Z,5.38
2023-05-05T06:49:11.098Z,5.45
2023-05-05T06:51:56.241Z,5.63
2023-05-05T06:54:42.561Z,5.25
2023-05-05T06:57:27.530Z,5.45
2023-05-05T07:00:13.605Z,5.10
2023-05-05T07:02:59.119Z,5.03
2023-05-05T07:05:44.135Z,5.10
2023-05-05T07:08:29.407Z,5.30
2023-05-05T07:11:14.674Z,4.80
2023-05-05T07:14:00.462Z,4.90
2023-05-05T07:16:45.733Z,4.82
2023-05-05T07:19:30.828Z,4.90
2023-05-05T07:22:16.180Z,4.32
2023-05-05T07:25:02.730Z,4.72
2023-05-05T07:27:48.678Z,4.30
2023-05-05T07:30:33.988Z,4.53
2023-05-05T07:33:19.100Z,4.18
2023-05-05T07:36:04.720Z,4.28
2023-05-05T07:38:49.801Z,4.40
2023-05-05T07:41:35.078Z,4.30
2023-05-05T07:44:20.275Z,3.90
2023-05-05T07:47:05.514Z,3.95
2023-05-05T07:49:51.080Z,4.28
2023-05-05T07:52:46.694Z,4.40
2023-05-05T07:55:37.200Z,4.38
2023-05-05T07:58:22.476Z,4.47
2023-05-05T08:01:08.218Z,3.78
2023-05-05T08:03:53.544Z,4.18
2023-05-05T08:06:38.762Z,3.83
2023-05-05T08:09:24.106Z,3.80
2023-05-05T08:12:09.548Z,4.00
2023-05-05T08:14:54.882Z,3.63
2023-05-05T08:17:50.981Z,3.80
2023-05-05T08:20:36.391Z,4.28
2023-05-05T08:23:21.774Z,3.83
2023-05-05T08:26:07.517Z,4.07
2023-05-05T08:28:53.169Z,4.00
2023-05-05T08:31:38.397Z,3.88
2023-05-05T08:34:23.906Z,3.92
2023-05-05T08:37:09.366Z,3.75
2023-05-05T08:39:54.567Z,3.83
2023-05-05T08:42:40.828Z,3.63
2023-05-05T08:45:28.192Z,3.30
2023-05-05T08:48:17.079Z,3.50
2023-05-05T08:51:05.617Z,3.63
2023-05-05T08:53:53.823Z,3.40
2023-05-05T08:56:40.562Z,3.40
2023-05-05T08:59:26.070Z,3.50
2023-05-05T09:02:12.537Z,3.30
2023-05-05T09:04:58.050Z,3.17
2023-05-05T09:07:44.345Z,3.72
2023-05-05T09:10:30.349Z,3.67
2023-05-05T09:13:15.684Z,3.47
2023-05-05T09:16:00.975Z,3.20
2023-05-05T09:18:46.124Z,3.45
2023-05-05T09:21:31.562Z,3.47
2023-05-05T09:24:16.711Z,3.33
2023-05-05T09:27:21.752Z,3.35
2023-05-05T09:30:09.401Z,3.35
2023-05-05T09:32:55.200Z,3.00
2023-05-05T09:35:54.732Z,3.00
2023-05-05T09:38:39.803Z,3.20
2023-05-05T09:41:41.847Z,3.25
2023-05-05T09:44:37.836Z,3.10
2023-05-05T09:47:34.931Z,2.88
2023-05-05T09:50:22.037Z,2.60
2023-05-05T09:53:08.094Z,2.90
2023-05-05T09:55:58.215Z,2.80
2023-05-05T09:58:43.366Z,2.83
2023-05-05T10:01:28.491Z,2.65
2023-05-05T10:04:27.709Z,2.42
2023-05-05T10:07:23.476Z,2.67
2023-05-05T10:10:11.650Z,3.00
2023-05-05T10:12:57.839Z,2.67
2023-05-05T10:15:45.720Z,3.10
2023-05-05T10:18:32.210Z,3.20
2023-05-05T10:21:20.604Z,2.72
2023-05-05T10:24:46.516Z,2.97
2023-05-05T10:27:38.864Z,2.50
2023-05-05T10:30:29.281Z,2.90
2023-05-05T10:33:32.006Z,3.10
2023-05-05T10:36:20.177Z,2.80
2023-05-05T10:39:06.138Z,2.92
2023-05-05T10:41:52.114Z,3.10
2023-05-05T10:44:37.538Z,2.95
2023-05-05T10:47:24.369Z,3.50
2023-05-05T10:50:29.510Z,2.80
2023-05-05T10:53:28.131Z,3.05
2023-05-05T10:56:30.163Z,2.92
2023-05-05T10:59:37.169Z,3.15
2023-05-05T11:02:29.760Z,2.90
2023-05-05T11:05:17.062Z,2.60
2023-05-05T11:08:25.714Z,3.13
2023-05-05T11:11:12.133Z,2.80
2023-05-05T11:14:20.490Z,2.72
2023-05-05T11:17:44.507Z,2.63
2023-05-05T11:20:35.732Z,2.92
2023-05-05T11:23:20.857Z,3.10
2023-05-05T11:26:06.225Z,3.35
2023-05-05T11:28:57.338Z,3.17
2023-05-05T11:31:42.894Z,3.22
2023-05-05T11:34:28.597Z,3.20
2023-05-05T11:37:15.331Z,3.55
2023-05-05T11:40:13.388Z,3.88
2023-05-05T11:43:05.652Z,4.38
2023-05-05T11:46:09.732Z,3.78
2023-05-05T11:48:55.116Z,3.70
2023-05-05T11:51:40.482Z,3.80
2023-05-05T11:54:26.201Z,4.00
2023-05-05T11:57:11.342Z,3.78
2023-05-05T12:00:05.895Z,3.75
2023-05-05T12:02:56.462Z,3.60
2023-05-05T12:05:42.121Z,4.38
2023-05-05T12:08:28.041Z,4.30
2023-05-05T12:11:13.491Z,3.80
2023-05-05T12:14:11.626Z,3.80
2023-05-05T12:17:01.176Z,3.80
2023-05-05T12:19:48.104Z,3.60
2023-05-05T12:22:33.745Z,3.42
2023-05-05T12:25:18.939Z,3.70
2023-05-05T12:28:05.644Z,3.60
2023-05-05T12:30:59.940Z,3.83
2023-05-05T12:33:45.654Z,3.60
2023-05-05T12:36:32.597Z,3.95
2023-05-05T12:39:17.974Z,3.60
2023-05-05T12:42:06.637Z,3.53
2023-05-05T12:44:52.254Z,4.00
2023-05-05T12:47:37.487Z,4.28
2023-05-05T12:50:32.556Z,3.95
2023-05-05T12:53:24.866Z,4.03
2023-05-05T12:56:47.672Z,3.58
2023-05-05T12:59:32.720Z,3.53
2023-05-05T13:02:18.398Z,3.55
2023-05-05T13:05:03.700Z,3.67
2023-05-05T13:07:50.918Z,3.70
2023-05-05T13:10:35.979Z,3.50
2023-05-05T13:13:21.265Z,3.30
2023-05-05T13:16:07.484Z,3.55
2023-05-05T13:18:52.831Z,3.10
2023-05-05T13:21:38.080Z,3.20
2023-05-05T13:24:38.094Z,3.60
2023-05-05T13:27:30.177Z,3.60
2023-05-05T13:30:15.687Z,3.42
2023-05-05T13:33:02.101Z,3.80
2023-05-05T13:35:49.849Z,3.72
2023-05-05T13:38:35.069Z,3.50
2023-05-05T13:41:20.764Z,3.60
2023-05-05T13:44:06.322Z,3.70
2023-05-05T13:46:51.821Z,3.80
2023-05-05T13:49:36.960Z,3.60
2023-05-05T13:52:22.340Z,3.22
2023-05-05T13:55:08.382Z,3.50
2023-05-05T13:57:54.056Z,3.38
2023-05-05T14:00:39.788Z,3.40
2023-05-05T14:03:25.136Z,3.30
2023-05-05T14:06:10.527Z,3.20
2023-05-05T14:08:55.820Z,3.60
2023-05-05T14:11:41.255Z,3.75
2023-05-05T14:14:26.581Z,3.90
2023-05-05T14:17:11.877Z,3.92
2023-05-05T14:19:57.129Z,4.20
2023-05-05T14:22:42.369Z,3.63
2023-05-05T14:25:52.342Z,4.40
2023-05-05T14:28:37.498Z,4.65
2023-05-05T14:31:22.659Z,4.82
2023-05-05T14:34:07.790Z,5.20
2023-05-05T14:36:53.527Z,5.35
2023-05-05T14:39:38.915Z,6.70
2023-05-05T14:42:25.126Z,6.57
2023-05-05T14:45:11.130Z,6.35
2023-05-05T14:47:57.170Z,6.55
2023-05-05T14:50:42.842Z,6.78
2023-05-05T14:53:28.047Z,7.03
2023-05-05T14:56:13.822Z,6.78
2023-05-05T14:58:59.086Z,6.32
2023-05-05T15:01:44.317Z,6.82
2023-05-05T15:04:29.629Z,5.95
2023-05-05T15:07:14.905Z,6.35
2023-05-05T15:10:00.376Z,6.90
2023-05-05T15:12:46.105Z,6.70
2023-05-05T15:15:31.301Z,6.50
2023-05-05T15:18:16.803Z,6.00
2023-05-05T15:21:02.269Z,6.07
2023-05-05T15:23:47.401Z,5.68
2023-05-05T15:26:32.724Z,5.20
2023-05-05T15:29:17.995Z,5.28
2023-05-05T15:32:03.479Z,5.85
2023-05-05T15:34:50.225Z,5.95
2023-05-05T15:37:36.316Z,6.28
2023-05-05T15:40:22.523Z,6.57
2023-05-05T15:43:09.738Z,6.07
2023-05-05T15:45:58.296Z,6.50
2023-05-05T15:48:46.573Z,7.00
2023-05-05T15:51:32.374Z,7.10
2023-05-05T15:54:30.660Z,6.95
2023-05-05T15:57:20.962Z,6.97
2023-05-05T16:00:11.389Z,6.32
2023-05-05T16:02:57.455Z,6.50
2023-05-05T16:05:42.721Z,6.55
2023-05-05T16:08:27.932Z,5.82
2023-05-05T16:11:14.202Z,6.38
2023-05-05T16:13:59.728Z,6.25
2023-05-05T16:16:46.409Z,6.07
2023-05-05T16:19:31.920Z,5.80
2023-05-05T16:22:16.996Z,5.90
2023-05-05T16:25:02.311Z,5.78
2023-05-05T16:27:47.738Z,5.05
2023-05-05T16:30:32.949Z,5.57
2023-05-05T16:33:18.437Z,5.53
2023-05-05T16:36:04.065Z,5.10
2023-05-05T16:38:53.969Z,4.97
2023-05-05T16:41:40.163Z,4.88
2023-05-05T16:44:25.476Z,5.50
2023-05-05T16:47:10.792Z,5.00
2023-05-05T16:49:56.274Z,4.78
2023-05-05T16:52:43.036Z,5.18
2023-05-05T16:55:28.583Z,5.47
2023-05-05T16:58:13.691Z,5.50
2023-05-05T17:00:58.967Z,4.32
2023-05-05T17:03:44.243Z,4.10
2023-05-05T17:06:32.988Z,3.50
2023-05-05T17:09:18.556Z,3.83
2023-05-05T17:12:04.461Z,3.50
2023-05-05T17:14:49.881Z,3.42
2023-05-05T17:17:35.248Z,3.70
2023-05-05T17:20:20.631Z,3.28
2023-05-05T17:23:06.770Z,2.95
2023-05-05T17:25:52.645Z,3.22
2023-05-05T17:28:39.395Z,3.30
2023-05-05T17:31:25.882Z,3.13
2023-05-05T17:34:11.544Z,3.15
2023-05-05T17:36:56.974Z,3.10
2023-05-05T17:39:45.837Z,3.58
2023-05-05T17:42:31.885Z,3.70
2023-05-05T17:45:17.943Z,3.50
2023-05-05T17:48:06.462Z,3.60
2023-05-05T17:50:51.829Z,3.55
2023-05-05T17:53:37.260Z,4.82
2023-05-05T17:56:23.977Z,4.90
2023-05-05T17:59:13.365Z,5.45
2023-05-05T18:02:00.914Z,5.50
2023-05-05T18:04:47.083Z,5.30
2023-05-05T18:07:32.550Z,6.07
2023-05-05T18:10:17.772Z,6.90
2023-05-05T18:13:03.788Z,7.55
2023-05-05T18:15:50.290Z,7.50
2023-05-05T18:18:35.725Z,7.38
2023-05-05T18:21:21.158Z,7.70
2023-05-05T18:24:18.629Z,8.20
2023-05-05T18:27:06.890Z,8.23
2023-05-05T18:29:52.310Z,7.95
2023-05-05T18:32:38.345Z,8.18
2023-05-05T18:35:24.032Z,7.57
2023-05-05T18:38:09.309Z,7.10
2023-05-05T18:40:55.553Z,7.30
2023-05-05T18:43:41.270Z,7.95
2023-05-05T18:46:26.625Z,7.75
2023-05-05T18:49:14.866Z,8.10
2023-05-05T18:52:00.216Z,8.18
2023-05-05T18:54:45.682Z,7.47
2023-05-05T18:57:35.539Z,7.55
2023-05-05T19:00:21.262Z,7.43
2023-05-05T19:03:06.826Z,6.93
2023-05-05T19:05:52.714Z,7.32
2023-05-05T19:08:38.755Z,7.72
2023-05-05T19:11:24.999Z,7.78
2023-05-05T19:14:11.451Z,7.85
2023-05-05T19:16:57.385Z,8.73
2023-05-05T19:19:45.580Z,8.70
2023-05-05T19:22:30.826Z,8.45
2023-05-05T19:25:16.996Z,8.13
2023-05-05T19:28:02.597Z,22.55
2023-05-05T19:30:49.666Z,22.02
2023-05-05T19:33:37.616Z,11.00
2023-05-05T19:36:23.186Z,8.68
2023-05-05T19:39:09.026Z,8.77
2023-05-05T19:41:54.565Z,7.85
2023-05-05T19:44:40.128Z,8.73
2023-05-05T19:47:25.859Z,8.30
2023-05-05T19:50:12.240Z,9.77
2023-05-05T19:52:58.078Z,8.80
2023-05-05T19:55:43.437Z,8.45
2023-05-05T19:58:28.877Z,10.05
2023-05-05T20:01:14.304Z,10.27
2023-05-05T20:04:03.954Z,10.30
2023-05-05T20:06:50.233Z,9.73
2023-05-05T20:09:35.604Z,10.55
2023-05-05T20:12:20.815Z,10.85
2023-05-05T20:15:07.125Z,9.48
2023-05-05T20:17:52.309Z,9.63
2023-05-05T20:20:37.887Z,9.85
2023-05-05T20:23:23.371Z,9.65
2023-05-05T20:26:09.440Z,9.27
2023-05-05T20:28:54.962Z,8.88
2023-05-05T20:31:40.190Z,9.07
2023-05-05T20:34:25.495Z,8.60
2023-05-05T20:37:12.447Z,8.20
2023-05-05T20:39:58.846Z,8.27
2023-05-05T20:42:44.102Z,7.80
2023-05-05T20:45:29.222Z,8.30
2023-05-05T20:48:14.720Z,8.07
2023-05-05T20:51:03.658Z,8.57
2023-05-05T20:53:49.110Z,8.60
2023-05-05T20:56:34.314Z,8.65
2023-05-05T20:59:19.448Z,9.27
2023-05-05T21:02:04.633Z,8.60
2023-05-05T21:04:50.378Z,9.13
2023-05-05T21:07:35.527Z,12.27
2023-05-05T21:10:21.121Z,11.10
2023-05-05T21:13:06.327Z,10.73
2023-05-05T21:15:51.661Z,11.30
2023-05-05T21:18:36.695Z,11.55
2023-05-05T21:21:22.051Z,17.00
2023-05-05T21:24:08.243Z,16.38
2023-05-05T21:26:53.995Z,13.63
2023-05-05T21:29:39.433Z,12.45
2023-05-05T21:32:25.166Z,12.32
2023-05-05T21:35:10.853Z,16.50
2023-05-05T21:37:56.381Z,12.05
2023-05-05T21:40:41.575Z,12.13
2023-05-05T21:43:27.200Z,11.93
2023-05-05T21:46:12.288Z,11.88
2023-05-05T21:48:59.684Z,12.27
2023-05-05T21:51:46.290Z,11.18
2023-05-05T21:54:31.453Z,9.57
2023-05-05T21:57:16.978Z,9.23
2023-05-05T22:00:03.336Z,8.82
2023-05-05T22:02:57.680Z,8.02
2023-05-05T22:05:42.840Z,7.97
2023-05-05T22:08:28.312Z,8.00
2023-05-05T22:11:13.946Z,7.68
2023-05-05T22:13:59.347Z,7.95
2023-05-05T22:16:44.547Z,8.57
2023-05-05T22:19:29.557Z,7.93
2023-05-05T22:22:14.711Z,7.18
2023-05-05T22:24:59.848Z,7.97
2023-05-05T22:27:45.316Z,7.70
2023-05-05T22:30:30.921Z,7.50
2023-05-05T22:33:16.795Z,7.82
2023-05-05T22:36:02.102Z,9.20
2023-05-05T22:38:47.209Z,9.90
2023-05-05T22:41:32.302Z,8.88
2023-05-05T22:44:18.480Z,7.53
2023-05-05T22:47:03.831Z,6.88
2023-05-05T22:49:49.202Z,6.65
2023-05-05T22:52:34.415Z,6.15
2023-05-05T22:55:19.669Z,5.95
2023-05-05T22:58:04.859Z,5.57
2023-05-05T23:00:49.970Z,5.47
2023-05-05T23:03:35.284Z,5.28
2023-05-05T23:06:20.505Z,4.57
2023-05-05T23:09:06.079Z,4.10
2023-05-05T23:11:52.690Z,4.82
2023-05-05T23:14:38.071Z,6.40
2023-05-05T23:17:23.682Z,5.93
2023-05-05T23:20:09.437Z,5.57
2023-05-05T23:22:55.414Z,5.03
2023-05-05T23:25:40.601Z,4.15
2023-05-05T23:28:26.344Z,3.78
2023-05-05T23:31:11.900Z,3.97
2023-05-05T23:33:57.319Z,3.33
2023-05-05T23:36:43.516Z,3.20
2023-05-05T23:39:28.664Z,3.00
2023-05-05T23:42:14.097Z,3.03
2023-05-05T23:44:59.574Z,2.58
2023-05-05T23:47:44.865Z,2.65
2023-05-05T23:50:30.321Z,2.65
2023-05-05T23:53:15.910Z,2.88
2023-05-05T23:56:01.661Z,2.65
2023-05-05T23:58:47.419Z,2.60
